sensor_id;sensor_type;location;lat;lon;timestamp;temperature;humidity
38084;DHT22;23894;51.466;7.444;2022-07-06T00:00:24;17.60;99.90
38084;DHT22;23894;51.466;7.444;2022-07-06T00:02:24;17.50;99.90
38084;DHT22;23894;51.466;7.444;2022-07-06T00:04:25;17.50;99.90
38084;DHT22;23894;51.466;7.444;2022-07-06T00:06:26;17.40;99.90
38084;DHT22;23894;51.466;7.444;2022-07-06T00:08:26;17.30;99.90
38084;DHT22;23894;51.466;7.444;2022-07-06T00:10:27;17.30;99.90
38084;DHT22;23894;51.466;7.444;2022-07-06T00:12:27;17.30;99.90
38084;DHT22;23894;51.466;7.444;2022-07-06T00:14:28;17.20;99.90
38084;DHT22;23894;51.466;7.444;2022-07-06T00:16:29;17.10;99.90
38084;DHT22;23894;51.466;7.444;2022-07-06T00:18:29;17.00;99.90
38084;DHT22;23894;51.466;7.444;2022-07-06T00:20:30;17.00;99.90
38084;DHT22;23894;51.466;7.444;2022-07-06T00:22:30;16.90;99.90
38084;DHT22;23894;51.466;7.444;2022-07-06T00:24:31;16.80;99.90
38084;DHT22;23894;51.466;7.444;2022-07-06T00:26:31;16.80;99.90
38084;DHT22;23894;51.466;7.444;2022-07-06T00:28:32;16.70;99.90
38084;DHT22;23894;51.466;7.444;2022-07-06T00:30:32;16.70;99.90
38084;DHT22;23894;51.466;7.444;2022-07-06T00:32:33;16.60;99.90
38084;DHT22;23894;51.466;7.444;2022-07-06T00:34:33;16.60;99.90
38084;DHT22;23894;51.466;7.444;2022-07-06T00:36:35;16.70;99.90
38084;DHT22;23894;51.466;7.444;2022-07-06T00:38:36;16.70;99.90
38084;DHT22;23894;51.466;7.444;2022-07-06T00:40:36;16.70;99.90
38084;DHT22;23894;51.466;7.444;2022-07-06T00:42:43;16.70;99.90
38084;DHT22;23894;51.466;7.444;2022-07-06T00:44:44;16.70;99.90
38084;DHT22;23894;51.466;7.444;2022-07-06T00:46:44;16.70;99.90
38084;DHT22;23894;51.466;7.444;2022-07-06T00:48:45;16.70;99.90
38084;DHT22;23894;51.466;7.444;2022-07-06T00:50:45;16.70;99.90
38084;DHT22;23894;51.466;7.444;2022-07-06T00:52:53;16.70;99.90
38084;DHT22;23894;51.466;7.444;2022-07-06T00:54:54;16.70;99.90
38084;DHT22;23894;51.466;7.444;2022-07-06T00:56:55;16.70;99.90
38084;DHT22;23894;51.466;7.444;2022-07-06T00:58:55;16.70;99.90
38084;DHT22;23894;51.466;7.444;2022-07-06T01:00:56;16.70;99.90
38084;DHT22;23894;51.466;7.444;2022-07-06T01:02:56;16.60;99.90
38084;DHT22;23894;51.466;7.444;2022-07-06T01:04:57;16.60;99.90
38084;DHT22;23894;51.466;7.444;2022-07-06T01:06:58;16.60;99.90
38084;DHT22;23894;51.466;7.444;2022-07-06T01:08:59;16.60;99.90
38084;DHT22;23894;51.466;7.444;2022-07-06T01:11:00;16.50;99.90
38084;DHT22;23894;51.466;7.444;2022-07-06T01:13:01;16.50;99.90
38084;DHT22;23894;51.466;7.444;2022-07-06T01:15:05;16.50;99.90
38084;DHT22;23894;51.466;7.444;2022-07-06T01:17:07;16.50;99.90
38084;DHT22;23894;51.466;7.444;2022-07-06T01:19:07;16.50;99.90
38084;DHT22;23894;51.466;7.444;2022-07-06T01:21:09;16.40;99.90
38084;DHT22;23894;51.466;7.444;2022-07-06T01:23:10;16.40;99.90
38084;DHT22;23894;51.466;7.444;2022-07-06T01:25:11;16.40;99.90
38084;DHT22;23894;51.466;7.444;2022-07-06T01:27:12;16.30;99.90
38084;DHT22;23894;51.466;7.444;2022-07-06T01:29:12;16.30;99.90
38084;DHT22;23894;51.466;7.444;2022-07-06T01:31:13;16.20;99.90
38084;DHT22;23894;51.466;7.444;2022-07-06T01:33:14;16.20;99.90
38084;DHT22;23894;51.466;7.444;2022-07-06T01:35:15;16.10;99.90
38084;DHT22;23894;51.466;7.444;2022-07-06T01:37:16;16.10;99.90
38084;DHT22;23894;51.466;7.444;2022-07-06T01:39:16;16.10;99.90
38084;DHT22;23894;51.466;7.444;2022-07-06T01:41:17;16.10;99.90
38084;DHT22;23894;51.466;7.444;2022-07-06T01:43:18;16.10;99.90
38084;DHT22;23894;51.466;7.444;2022-07-06T01:45:19;16.10;99.90
38084;DHT22;23894;51.466;7.444;2022-07-06T01:47:19;16.00;99.90
38084;DHT22;23894;51.466;7.444;2022-07-06T01:49:20;16.00;99.90
38084;DHT22;23894;51.466;7.444;2022-07-06T01:51:20;16.00;99.90
38084;DHT22;23894;51.466;7.444;2022-07-06T01:53:21;16.00;99.90
38084;DHT22;23894;51.466;7.444;2022-07-06T01:55:21;16.00;99.90
38084;DHT22;23894;51.466;7.444;2022-07-06T01:57:22;15.90;99.90
38084;DHT22;23894;51.466;7.444;2022-07-06T01:59:22;16.00;99.90
38084;DHT22;23894;51.466;7.444;2022-07-06T02:01:23;16.00;99.90
38084;DHT22;23894;51.466;7.444;2022-07-06T02:03:24;16.00;99.90
38084;DHT22;23894;51.466;7.444;2022-07-06T02:05:24;15.90;99.90
38084;DHT22;23894;51.466;7.444;2022-07-06T02:07:25;15.90;99.90
38084;DHT22;23894;51.466;7.444;2022-07-06T02:09:25;15.90;99.90
38084;DHT22;23894;51.466;7.444;2022-07-06T02:11:26;15.90;99.90
38084;DHT22;23894;51.466;7.444;2022-07-06T02:13:28;15.90;99.90
38084;DHT22;23894;51.466;7.444;2022-07-06T02:15:29;15.90;99.90
38084;DHT22;23894;51.466;7.444;2022-07-06T02:17:29;15.80;99.90
38084;DHT22;23894;51.466;7.444;2022-07-06T02:19:30;15.90;99.90
38084;DHT22;23894;51.466;7.444;2022-07-06T02:21:30;15.80;99.90
38084;DHT22;23894;51.466;7.444;2022-07-06T02:23:31;15.80;99.90
38084;DHT22;23894;51.466;7.444;2022-07-06T02:25:31;15.80;99.90
38084;DHT22;23894;51.466;7.444;2022-07-06T02:27:32;15.80;99.90
38084;DHT22;23894;51.466;7.444;2022-07-06T02:29:32;15.70;99.90
38084;DHT22;23894;51.466;7.444;2022-07-06T02:31:33;15.70;99.90
38084;DHT22;23894;51.466;7.444;2022-07-06T02:33:33;15.60;99.90
38084;DHT22;23894;51.466;7.444;2022-07-06T02:35:34;15.60;99.90
38084;DHT22;23894;51.466;7.444;2022-07-06T02:37:34;15.60;99.90
38084;DHT22;23894;51.466;7.444;2022-07-06T02:39:35;15.50;99.90
38084;DHT22;23894;51.466;7.444;2022-07-06T02:41:36;15.50;99.90
38084;DHT22;23894;51.466;7.444;2022-07-06T02:43:37;15.50;99.90
38084;DHT22;23894;51.466;7.444;2022-07-06T02:45:39;15.40;99.90
38084;DHT22;23894;51.466;7.444;2022-07-06T02:47:40;15.40;99.90
38084;DHT22;23894;51.466;7.444;2022-07-06T02:49:40;15.40;99.90
38084;DHT22;23894;51.466;7.444;2022-07-06T02:51:41;15.40;99.90
38084;DHT22;23894;51.466;7.444;2022-07-06T02:53:41;15.40;99.90
38084;DHT22;23894;51.466;7.444;2022-07-06T02:55:41;15.40;99.90
38084;DHT22;23894;51.466;7.444;2022-07-06T02:57:42;15.30;99.90
38084;DHT22;23894;51.466;7.444;2022-07-06T02:59:43;15.30;99.90
38084;DHT22;23894;51.466;7.444;2022-07-06T03:01:44;15.20;99.90
38084;DHT22;23894;51.466;7.444;2022-07-06T03:03:45;15.30;99.90
38084;DHT22;23894;51.466;7.444;2022-07-06T03:05:45;15.20;99.90
38084;DHT22;23894;51.466;7.444;2022-07-06T03:07:47;15.20;99.90
38084;DHT22;23894;51.466;7.444;2022-07-06T03:09:47;15.20;99.90
38084;DHT22;23894;51.466;7.444;2022-07-06T03:11:49;15.20;99.90
38084;DHT22;23894;51.466;7.444;2022-07-06T03:13:50;15.20;99.90
38084;DHT22;23894;51.466;7.444;2022-07-06T03:15:53;15.10;99.90
38084;DHT22;23894;51.466;7.444;2022-07-06T03:17:53;15.10;99.90
38084;DHT22;23894;51.466;7.444;2022-07-06T03:19:54;15.00;99.90
38084;DHT22;23894;51.466;7.444;2022-07-06T03:21:54;15.00;99.90
38084;DHT22;23894;51.466;7.444;2022-07-06T03:23:55;15.00;99.90
38084;DHT22;23894;51.466;7.444;2022-07-06T03:25:55;14.90;99.90
38084;DHT22;23894;51.466;7.444;2022-07-06T03:27:55;14.80;99.90
38084;DHT22;23894;51.466;7.444;2022-07-06T03:29:56;14.80;99.90
38084;DHT22;23894;51.466;7.444;2022-07-06T03:31:56;14.70;99.90
38084;DHT22;23894;51.466;7.444;2022-07-06T03:33:57;14.70;99.90
38084;DHT22;23894;51.466;7.444;2022-07-06T03:35:58;14.60;99.90
38084;DHT22;23894;51.466;7.444;2022-07-06T03:37:58;14.60;99.90
38084;DHT22;23894;51.466;7.444;2022-07-06T03:39:59;14.60;99.90
38084;DHT22;23894;51.466;7.444;2022-07-06T03:41:59;14.60;99.90
38084;DHT22;23894;51.466;7.444;2022-07-06T03:44:00;14.50;99.90
38084;DHT22;23894;51.466;7.444;2022-07-06T03:46:00;14.50;99.90
38084;DHT22;23894;51.466;7.444;2022-07-06T03:48:01;14.50;99.90
38084;DHT22;23894;51.466;7.444;2022-07-06T03:50:02;14.50;99.90
38084;DHT22;23894;51.466;7.444;2022-07-06T03:52:02;14.40;99.90
38084;DHT22;23894;51.466;7.444;2022-07-06T03:54:03;14.40;99.90
38084;DHT22;23894;51.466;7.444;2022-07-06T03:56:04;14.40;99.90
38084;DHT22;23894;51.466;7.444;2022-07-06T03:58:23;14.40;99.90
38084;DHT22;23894;51.466;7.444;2022-07-06T04:00:23;14.40;99.90
38084;DHT22;23894;51.466;7.444;2022-07-06T04:02:24;14.40;99.90
38084;DHT22;23894;51.466;7.444;2022-07-06T04:04:24;14.40;99.90
38084;DHT22;23894;51.466;7.444;2022-07-06T04:06:25;14.40;99.90
38084;DHT22;23894;51.466;7.444;2022-07-06T04:08:26;14.30;99.90
38084;DHT22;23894;51.466;7.444;2022-07-06T04:10:27;14.30;99.90
38084;DHT22;23894;51.466;7.444;2022-07-06T04:12:27;14.40;99.90
38084;DHT22;23894;51.466;7.444;2022-07-06T04:14:28;14.30;99.90
38084;DHT22;23894;51.466;7.444;2022-07-06T04:16:28;14.40;99.90
38084;DHT22;23894;51.466;7.444;2022-07-06T04:18:29;14.40;99.90
38084;DHT22;23894;51.466;7.444;2022-07-06T04:20:29;14.40;99.90
38084;DHT22;23894;51.466;7.444;2022-07-06T04:22:30;14.40;99.90
38084;DHT22;23894;51.466;7.444;2022-07-06T04:24:30;14.40;99.90
38084;DHT22;23894;51.466;7.444;2022-07-06T04:26:31;14.50;99.90
38084;DHT22;23894;51.466;7.444;2022-07-06T04:28:32;14.60;99.90
38084;DHT22;23894;51.466;7.444;2022-07-06T04:30:32;14.60;99.90
38084;DHT22;23894;51.466;7.444;2022-07-06T04:32:33;14.60;99.90
38084;DHT22;23894;51.466;7.444;2022-07-06T04:34:34;14.70;99.90
38084;DHT22;23894;51.466;7.444;2022-07-06T04:36:35;14.70;99.90
38084;DHT22;23894;51.466;7.444;2022-07-06T04:38:35;14.80;99.90
38084;DHT22;23894;51.466;7.444;2022-07-06T04:40:36;14.80;99.90
38084;DHT22;23894;51.466;7.444;2022-07-06T04:42:37;14.80;99.90
38084;DHT22;23894;51.466;7.444;2022-07-06T04:44:38;14.90;99.90
38084;DHT22;23894;51.466;7.444;2022-07-06T04:46:38;15.00;99.90
38084;DHT22;23894;51.466;7.444;2022-07-06T04:48:39;15.00;99.90
38084;DHT22;23894;51.466;7.444;2022-07-06T04:50:39;15.00;99.90
38084;DHT22;23894;51.466;7.444;2022-07-06T04:52:40;15.00;99.90
38084;DHT22;23894;51.466;7.444;2022-07-06T04:54:41;15.00;99.90
38084;DHT22;23894;51.466;7.444;2022-07-06T04:56:41;15.10;99.90
38084;DHT22;23894;51.466;7.444;2022-07-06T04:58:42;15.10;99.90
38084;DHT22;23894;51.466;7.444;2022-07-06T05:00:42;15.10;99.90
38084;DHT22;23894;51.466;7.444;2022-07-06T05:02:42;15.10;99.90
38084;DHT22;23894;51.466;7.444;2022-07-06T05:04:43;15.20;99.90
38084;DHT22;23894;51.466;7.444;2022-07-06T05:06:44;15.20;99.90
38084;DHT22;23894;51.466;7.444;2022-07-06T05:08:45;15.20;99.90
38084;DHT22;23894;51.466;7.444;2022-07-06T05:10:45;15.20;99.90
38084;DHT22;23894;51.466;7.444;2022-07-06T05:12:46;15.20;99.90
38084;DHT22;23894;51.466;7.444;2022-07-06T05:14:46;15.20;99.90
38084;DHT22;23894;51.466;7.444;2022-07-06T05:16:47;15.20;99.90
38084;DHT22;23894;51.466;7.444;2022-07-06T05:18:48;15.20;99.90
38084;DHT22;23894;51.466;7.444;2022-07-06T05:20:49;15.20;99.90
38084;DHT22;23894;51.466;7.444;2022-07-06T05:22:53;15.30;99.90
38084;DHT22;23894;51.466;7.444;2022-07-06T05:24:53;15.30;99.90
38084;DHT22;23894;51.466;7.444;2022-07-06T05:26:54;15.30;99.90
38084;DHT22;23894;51.466;7.444;2022-07-06T05:28:55;15.30;99.90
38084;DHT22;23894;51.466;7.444;2022-07-06T05:30:55;15.30;99.90
38084;DHT22;23894;51.466;7.444;2022-07-06T05:32:55;15.30;99.90
38084;DHT22;23894;51.466;7.444;2022-07-06T05:34:56;15.30;99.90
38084;DHT22;23894;51.466;7.444;2022-07-06T05:36:56;15.30;99.90
38084;DHT22;23894;51.466;7.444;2022-07-06T05:38:57;15.30;99.90
38084;DHT22;23894;51.466;7.444;2022-07-06T05:40:57;15.30;99.90
38084;DHT22;23894;51.466;7.444;2022-07-06T05:42:58;15.30;99.90
38084;DHT22;23894;51.466;7.444;2022-07-06T05:44:58;15.40;99.90
38084;DHT22;23894;51.466;7.444;2022-07-06T05:46:59;15.40;99.90
38084;DHT22;23894;51.466;7.444;2022-07-06T05:49:19;15.50;99.90
38084;DHT22;23894;51.466;7.444;2022-07-06T05:51:38;15.50;99.90
38084;DHT22;23894;51.466;7.444;2022-07-06T05:53:39;15.60;99.90
38084;DHT22;23894;51.466;7.444;2022-07-06T05:55:39;15.60;99.90
38084;DHT22;23894;51.466;7.444;2022-07-06T05:57:40;15.60;99.90
38084;DHT22;23894;51.466;7.444;2022-07-06T05:59:40;15.70;99.90
38084;DHT22;23894;51.466;7.444;2022-07-06T06:01:41;15.80;99.90
38084;DHT22;23894;51.466;7.444;2022-07-06T06:03:41;15.70;99.90
38084;DHT22;23894;51.466;7.444;2022-07-06T06:05:42;15.80;99.90
38084;DHT22;23894;51.466;7.444;2022-07-06T06:07:43;15.90;99.90
38084;DHT22;23894;51.466;7.444;2022-07-06T06:09:45;15.80;99.90
38084;DHT22;23894;51.466;7.444;2022-07-06T06:11:45;15.80;99.90
38084;DHT22;23894;51.466;7.444;2022-07-06T06:13:46;15.90;99.90
38084;DHT22;23894;51.466;7.444;2022-07-06T06:15:46;15.90;99.90
38084;DHT22;23894;51.466;7.444;2022-07-06T06:17:47;16.00;99.90
38084;DHT22;23894;51.466;7.444;2022-07-06T06:19:47;16.10;99.90
38084;DHT22;23894;51.466;7.444;2022-07-06T06:21:49;16.10;99.90
38084;DHT22;23894;51.466;7.444;2022-07-06T06:23:53;16.20;99.90
38084;DHT22;23894;51.466;7.444;2022-07-06T06:25:53;16.20;99.90
38084;DHT22;23894;51.466;7.444;2022-07-06T06:27:54;16.20;99.90
38084;DHT22;23894;51.466;7.444;2022-07-06T06:29:54;16.30;99.90
38084;DHT22;23894;51.466;7.444;2022-07-06T06:31:55;16.40;99.90
38084;DHT22;23894;51.466;7.444;2022-07-06T06:33:55;16.40;99.90
38084;DHT22;23894;51.466;7.444;2022-07-06T06:35:56;16.50;99.90
38084;DHT22;23894;51.466;7.444;2022-07-06T06:37:56;16.60;99.90
38084;DHT22;23894;51.466;7.444;2022-07-06T06:39:57;16.60;99.90
38084;DHT22;23894;51.466;7.444;2022-07-06T06:41:57;16.60;99.90
38084;DHT22;23894;51.466;7.444;2022-07-06T06:43:58;16.60;99.90
38084;DHT22;23894;51.466;7.444;2022-07-06T06:45:58;16.70;99.90
38084;DHT22;23894;51.466;7.444;2022-07-06T06:47:59;16.70;99.90
38084;DHT22;23894;51.466;7.444;2022-07-06T06:49:59;16.70;99.90
38084;DHT22;23894;51.466;7.444;2022-07-06T06:52:00;16.70;99.90
38084;DHT22;23894;51.466;7.444;2022-07-06T06:54:00;16.70;99.90
38084;DHT22;23894;51.466;7.444;2022-07-06T06:56:01;16.70;99.90
38084;DHT22;23894;51.466;7.444;2022-07-06T06:58:01;16.80;99.90
38084;DHT22;23894;51.466;7.444;2022-07-06T07:00:03;16.80;99.90
38084;DHT22;23894;51.466;7.444;2022-07-06T07:02:04;16.90;99.90
38084;DHT22;23894;51.466;7.444;2022-07-06T07:04:05;17.00;99.90
38084;DHT22;23894;51.466;7.444;2022-07-06T07:06:06;17.10;99.90
38084;DHT22;23894;51.466;7.444;2022-07-06T07:08:07;17.10;99.90
38084;DHT22;23894;51.466;7.444;2022-07-06T07:10:07;17.20;99.90
38084;DHT22;23894;51.466;7.444;2022-07-06T07:12:08;17.20;99.90
38084;DHT22;23894;51.466;7.444;2022-07-06T07:14:10;17.20;99.90
38084;DHT22;23894;51.466;7.444;2022-07-06T07:16:11;17.20;99.90
38084;DHT22;23894;51.466;7.444;2022-07-06T07:18:11;17.20;99.90
38084;DHT22;23894;51.466;7.444;2022-07-06T07:20:12;17.20;99.90
38084;DHT22;23894;51.466;7.444;2022-07-06T07:22:12;17.20;99.90
38084;DHT22;23894;51.466;7.444;2022-07-06T07:24:13;17.20;99.90
38084;DHT22;23894;51.466;7.444;2022-07-06T07:26:13;17.20;99.90
38084;DHT22;23894;51.466;7.444;2022-07-06T07:28:14;17.20;99.90
38084;DHT22;23894;51.466;7.444;2022-07-06T07:30:14;17.30;99.90
38084;DHT22;23894;51.466;7.444;2022-07-06T07:32:15;17.30;99.90
38084;DHT22;23894;51.466;7.444;2022-07-06T07:34:15;17.30;99.90
38084;DHT22;23894;51.466;7.444;2022-07-06T07:36:16;17.40;99.90
38084;DHT22;23894;51.466;7.444;2022-07-06T07:38:17;17.50;99.90
38084;DHT22;23894;51.466;7.444;2022-07-06T07:40:17;17.50;99.90
38084;DHT22;23894;51.466;7.444;2022-07-06T07:42:18;17.50;99.90
38084;DHT22;23894;51.466;7.444;2022-07-06T07:44:18;17.60;99.90
38084;DHT22;23894;51.466;7.444;2022-07-06T07:46:19;17.60;99.90
38084;DHT22;23894;51.466;7.444;2022-07-06T07:48:19;17.60;99.90
38084;DHT22;23894;51.466;7.444;2022-07-06T07:50:20;17.60;99.90
38084;DHT22;23894;51.466;7.444;2022-07-06T07:52:20;17.60;99.90
38084;DHT22;23894;51.466;7.444;2022-07-06T07:54:21;17.60;99.90
38084;DHT22;23894;51.466;7.444;2022-07-06T07:56:22;17.60;99.90
38084;DHT22;23894;51.466;7.444;2022-07-06T07:58:22;17.60;99.90
38084;DHT22;23894;51.466;7.444;2022-07-06T08:00:23;17.60;99.90
38084;DHT22;23894;51.466;7.444;2022-07-06T08:02:24;17.70;99.90
38084;DHT22;23894;51.466;7.444;2022-07-06T08:04:25;17.80;99.90
38084;DHT22;23894;51.466;7.444;2022-07-06T08:06:25;17.80;99.90
38084;DHT22;23894;51.466;7.444;2022-07-06T08:08:26;17.90;99.90
38084;DHT22;23894;51.466;7.444;2022-07-06T08:10:26;17.90;99.90
38084;DHT22;23894;51.466;7.444;2022-07-06T08:12:27;18.00;99.90
38084;DHT22;23894;51.466;7.444;2022-07-06T08:14:27;18.00;99.90
38084;DHT22;23894;51.466;7.444;2022-07-06T08:16:28;18.10;99.90
38084;DHT22;23894;51.466;7.444;2022-07-06T08:18:28;18.20;99.90
38084;DHT22;23894;51.466;7.444;2022-07-06T08:20:29;18.20;99.90
38084;DHT22;23894;51.466;7.444;2022-07-06T08:22:29;18.20;99.90
38084;DHT22;23894;51.466;7.444;2022-07-06T08:24:30;18.20;99.90
38084;DHT22;23894;51.466;7.444;2022-07-06T08:26:31;18.30;99.90
38084;DHT22;23894;51.466;7.444;2022-07-06T08:28:32;18.40;99.90
38084;DHT22;23894;51.466;7.444;2022-07-06T08:30:33;18.40;99.90
38084;DHT22;23894;51.466;7.444;2022-07-06T08:32:38;18.50;99.90
38084;DHT22;23894;51.466;7.444;2022-07-06T08:34:39;18.50;99.90
38084;DHT22;23894;51.466;7.444;2022-07-06T08:36:39;18.50;99.90
38084;DHT22;23894;51.466;7.444;2022-07-06T08:38:40;18.50;99.90
38084;DHT22;23894;51.466;7.444;2022-07-06T08:40:40;18.50;99.90
38084;DHT22;23894;51.466;7.444;2022-07-06T08:42:42;18.50;99.90
38084;DHT22;23894;51.466;7.444;2022-07-06T08:44:44;18.50;99.90
38084;DHT22;23894;51.466;7.444;2022-07-06T08:46:45;18.50;99.90
38084;DHT22;23894;51.466;7.444;2022-07-06T08:48:46;18.50;99.90
38084;DHT22;23894;51.466;7.444;2022-07-06T08:50:47;18.60;99.90
38084;DHT22;23894;51.466;7.444;2022-07-06T08:52:53;18.50;99.90
38084;DHT22;23894;51.466;7.444;2022-07-06T08:54:54;18.60;99.90
38084;DHT22;23894;51.466;7.444;2022-07-06T08:56:54;18.60;99.90
38084;DHT22;23894;51.466;7.444;2022-07-06T08:58:55;18.60;99.90
38084;DHT22;23894;51.466;7.444;2022-07-06T09:00:57;18.50;99.90
38084;DHT22;23894;51.466;7.444;2022-07-06T09:02:58;18.40;99.90
38084;DHT22;23894;51.466;7.444;2022-07-06T09:05:00;18.40;99.90
38084;DHT22;23894;51.466;7.444;2022-07-06T09:07:02;18.40;99.90
38084;DHT22;23894;51.466;7.444;2022-07-06T09:09:05;18.40;99.90
38084;DHT22;23894;51.466;7.444;2022-07-06T09:11:07;18.40;99.90
38084;DHT22;23894;51.466;7.444;2022-07-06T09:13:08;18.40;99.90
38084;DHT22;23894;51.466;7.444;2022-07-06T09:15:09;18.40;99.90
38084;DHT22;23894;51.466;7.444;2022-07-06T09:17:09;18.40;99.90
38084;DHT22;23894;51.466;7.444;2022-07-06T09:19:12;18.40;99.90
38084;DHT22;23894;51.466;7.444;2022-07-06T09:21:22;18.40;99.90
38084;DHT22;23894;51.466;7.444;2022-07-06T09:23:23;18.40;99.90
38084;DHT22;23894;51.466;7.444;2022-07-06T09:25:24;18.50;99.90
38084;DHT22;23894;51.466;7.444;2022-07-06T09:27:25;18.60;99.90
38084;DHT22;23894;51.466;7.444;2022-07-06T09:29:29;18.70;99.90
38084;DHT22;23894;51.466;7.444;2022-07-06T09:31:30;18.80;99.90
38084;DHT22;23894;51.466;7.444;2022-07-06T09:33:31;18.90;99.90
38084;DHT22;23894;51.466;7.444;2022-07-06T09:35:36;18.90;99.90
38084;DHT22;23894;51.466;7.444;2022-07-06T09:37:37;18.90;99.90
38084;DHT22;23894;51.466;7.444;2022-07-06T09:39:38;19.00;99.90
38084;DHT22;23894;51.466;7.444;2022-07-06T09:41:39;19.00;99.90
38084;DHT22;23894;51.466;7.444;2022-07-06T09:43:40;19.10;99.90
38084;DHT22;23894;51.466;7.444;2022-07-06T09:45:41;19.10;99.90
38084;DHT22;23894;51.466;7.444;2022-07-06T09:47:46;19.20;99.90
38084;DHT22;23894;51.466;7.444;2022-07-06T09:49:46;19.20;99.90
38084;DHT22;23894;51.466;7.444;2022-07-06T09:51:54;19.30;99.90
38084;DHT22;23894;51.466;7.444;2022-07-06T09:53:58;19.40;99.90
38084;DHT22;23894;51.466;7.444;2022-07-06T09:55:59;19.50;99.90
38084;DHT22;23894;51.466;7.444;2022-07-06T09:58:00;19.60;99.90
38084;DHT22;23894;51.466;7.444;2022-07-06T10:00:01;19.60;99.90
38084;DHT22;23894;51.466;7.444;2022-07-06T10:02:07;19.70;99.90
38084;DHT22;23894;51.466;7.444;2022-07-06T10:04:09;19.80;99.90
38084;DHT22;23894;51.466;7.444;2022-07-06T10:06:13;19.90;99.90
38084;DHT22;23894;51.466;7.444;2022-07-06T10:08:14;20.00;99.90
38084;DHT22;23894;51.466;7.444;2022-07-06T10:10:15;20.00;99.90
38084;DHT22;23894;51.466;7.444;2022-07-06T10:12:17;19.90;99.90
38084;DHT22;23894;51.466;7.444;2022-07-06T10:14:27;19.80;99.90
38084;DHT22;23894;51.466;7.444;2022-07-06T10:16:29;19.80;99.90
38084;DHT22;23894;51.466;7.444;2022-07-06T10:18:29;19.80;99.90
38084;DHT22;23894;51.466;7.444;2022-07-06T10:20:35;19.80;99.90
38084;DHT22;23894;51.466;7.444;2022-07-06T10:22:39;19.70;99.90
38084;DHT22;23894;51.466;7.444;2022-07-06T10:24:41;19.70;99.90
38084;DHT22;23894;51.466;7.444;2022-07-06T10:26:44;19.70;99.90
38084;DHT22;23894;51.466;7.444;2022-07-06T10:28:45;19.70;99.90
38084;DHT22;23894;51.466;7.444;2022-07-06T10:30:53;19.80;99.90
38084;DHT22;23894;51.466;7.444;2022-07-06T10:32:56;20.00;99.90
38084;DHT22;23894;51.466;7.444;2022-07-06T10:34:58;20.10;99.90
38084;DHT22;23894;51.466;7.444;2022-07-06T10:36:58;20.20;99.90
38084;DHT22;23894;51.466;7.444;2022-07-06T10:38:59;20.20;99.90
38084;DHT22;23894;51.466;7.444;2022-07-06T10:41:33;20.20;99.90
38084;DHT22;23894;51.466;7.444;2022-07-06T10:43:41;20.10;99.90
38084;DHT22;23894;51.466;7.444;2022-07-06T10:47:45;20.10;99.90
38084;DHT22;23894;51.466;7.444;2022-07-06T10:49:50;20.00;99.90
38084;DHT22;23894;51.466;7.444;2022-07-06T10:51:52;19.90;99.90
38084;DHT22;23894;51.466;7.444;2022-07-06T10:54:01;19.80;99.90
38084;DHT22;23894;51.466;7.444;2022-07-06T10:56:09;19.90;99.90
38084;DHT22;23894;51.466;7.444;2022-07-06T10:58:09;19.80;99.90
38084;DHT22;23894;51.466;7.444;2022-07-06T11:00:11;20.00;99.90
38084;DHT22;23894;51.466;7.444;2022-07-06T11:02:14;20.10;99.90
38084;DHT22;23894;51.466;7.444;2022-07-06T11:04:15;20.30;99.90
38084;DHT22;23894;51.466;7.444;2022-07-06T11:06:16;20.50;99.90
38084;DHT22;23894;51.466;7.444;2022-07-06T11:08:17;20.50;99.90
38084;DHT22;23894;51.466;7.444;2022-07-06T11:10:18;20.50;99.90
38084;DHT22;23894;51.466;7.444;2022-07-06T11:12:19;20.60;99.90
38084;DHT22;23894;51.466;7.444;2022-07-06T11:14:21;20.70;99.90
38084;DHT22;23894;51.466;7.444;2022-07-06T11:16:24;20.90;99.90
38084;DHT22;23894;51.466;7.444;2022-07-06T11:18:26;21.20;99.90
38084;DHT22;23894;51.466;7.444;2022-07-06T11:20:27;21.30;99.90
38084;DHT22;23894;51.466;7.444;2022-07-06T11:22:29;21.40;99.90
38084;DHT22;23894;51.466;7.444;2022-07-06T11:24:32;21.50;99.90
38084;DHT22;23894;51.466;7.444;2022-07-06T11:26:34;21.50;99.90
38084;DHT22;23894;51.466;7.444;2022-07-06T11:28:37;21.50;99.90
38084;DHT22;23894;51.466;7.444;2022-07-06T11:30:38;21.40;99.90
38084;DHT22;23894;51.466;7.444;2022-07-06T11:32:38;21.30;99.90
38084;DHT22;23894;51.466;7.444;2022-07-06T11:34:43;21.20;99.90
38084;DHT22;23894;51.466;7.444;2022-07-06T11:36:44;21.10;99.90
38084;DHT22;23894;51.466;7.444;2022-07-06T11:38:46;21.00;99.90
38084;DHT22;23894;51.466;7.444;2022-07-06T11:40:47;21.00;99.90
38084;DHT22;23894;51.466;7.444;2022-07-06T11:42:54;20.90;99.90
38084;DHT22;23894;51.466;7.444;2022-07-06T11:44:55;20.80;99.90
38084;DHT22;23894;51.466;7.444;2022-07-06T11:46:55;20.90;99.90
38084;DHT22;23894;51.466;7.444;2022-07-06T11:51:03;20.90;99.90
38084;DHT22;23894;51.466;7.444;2022-07-06T11:53:03;21.00;99.90
38084;DHT22;23894;51.466;7.444;2022-07-06T11:55:04;21.00;99.90
38084;DHT22;23894;51.466;7.444;2022-07-06T11:57:08;21.10;99.90
38084;DHT22;23894;51.466;7.444;2022-07-06T11:59:10;21.20;99.90
38084;DHT22;23894;51.466;7.444;2022-07-06T12:01:11;21.30;99.90
38084;DHT22;23894;51.466;7.444;2022-07-06T12:03:15;21.50;99.90
38084;DHT22;23894;51.466;7.444;2022-07-06T12:05:29;21.70;99.90
38084;DHT22;23894;51.466;7.444;2022-07-06T12:07:30;21.90;99.90
38084;DHT22;23894;51.466;7.444;2022-07-06T12:09:35;22.10;99.90
38084;DHT22;23894;51.466;7.444;2022-07-06T12:11:36;22.30;99.90
38084;DHT22;23894;51.466;7.444;2022-07-06T12:13:38;22.40;99.90
38084;DHT22;23894;51.466;7.444;2022-07-06T12:15:41;22.50;99.90
38084;DHT22;23894;51.466;7.444;2022-07-06T12:17:47;22.50;99.90
38084;DHT22;23894;51.466;7.444;2022-07-06T12:19:53;22.50;99.90
38084;DHT22;23894;51.466;7.444;2022-07-06T12:21:54;22.60;99.90
38084;DHT22;23894;51.466;7.444;2022-07-06T12:23:56;22.60;99.90
38084;DHT22;23894;51.466;7.444;2022-07-06T12:25:57;22.60;99.90
38084;DHT22;23894;51.466;7.444;2022-07-06T12:27:58;22.80;99.90
38084;DHT22;23894;51.466;7.444;2022-07-06T12:30:09;22.90;99.90
38084;DHT22;23894;51.466;7.444;2022-07-06T12:32:22;23.00;99.90
38084;DHT22;23894;51.466;7.444;2022-07-06T12:34:28;23.00;99.90
38084;DHT22;23894;51.466;7.444;2022-07-06T12:36:45;22.90;99.90
38084;DHT22;23894;51.466;7.444;2022-07-06T12:38:47;22.80;99.90
38084;DHT22;23894;51.466;7.444;2022-07-06T12:40:48;22.80;99.90
38084;DHT22;23894;51.466;7.444;2022-07-06T12:42:49;22.70;99.90
38084;DHT22;23894;51.466;7.444;2022-07-06T12:44:52;22.50;99.90
38084;DHT22;23894;51.466;7.444;2022-07-06T12:47:06;22.50;99.90
38084;DHT22;23894;51.466;7.444;2022-07-06T12:51:11;22.90;99.90
38084;DHT22;23894;51.466;7.444;2022-07-06T12:53:26;23.00;99.90